< < Back
Terminal Aerodrome Forecast


Current Version              Previous Versions:   1  2  3  4  5  6  7  8  9  

Terminal Aerodrome Forecast

627
FTUS42 KFFC 081955 AAA
TAFCSG
TAF AMD
KCSG 081955Z 0820/0918 28012G20KT P6SM SCT045 BKN080
      TEMPO 0820/0824 -SHRA BKN060
     FM090000 29008KT P6SM BKN050
     FM091500 27011G20KT P6SM SCT045 BKN080=

Latest METAR

981
SAUS70 KWBC 091354
MTRCSG
METAR KCSG 091351Z 32008KT 10SM OVC050 03/M08 A2994 RMK AO2 SLP140
T00281083


USA.gov is the U.S. government's official web portal to all federal, state and local government web resources and services.